createdAt,value
2023-01-12T00:01:43.828Z,65.60
2023-01-12T00:04:14.255Z,65.58
2023-01-12T00:06:41.244Z,65.66
2023-01-12T00:09:08.274Z,65.55
2023-01-12T00:11:36.050Z,65.65
2023-01-12T00:14:03.404Z,65.70
2023-01-12T00:16:39.775Z,65.75
2023-01-12T00:19:13.754Z,65.77
2023-01-12T00:21:53.834Z,65.79
2023-01-12T00:24:20.995Z,65.86
2023-01-12T00:26:48.454Z,65.79
2023-01-12T00:29:16.488Z,65.91
2023-01-12T00:31:43.663Z,65.99
2023-01-12T00:34:10.640Z,65.97
2023-01-12T00:36:37.552Z,65.99
2023-01-12T00:39:04.997Z,66.02
2023-01-12T00:41:50.631Z,66.00
2023-01-12T00:44:36.207Z,66.11
2023-01-12T00:47:03.040Z,65.96
2023-01-12T00:49:30.039Z,66.06
2023-01-12T00:51:56.882Z,66.07
2023-01-12T00:54:23.699Z,66.11
2023-01-12T00:56:50.533Z,66.03
2023-01-12T00:59:17.530Z,65.88
2023-01-12T01:01:44.460Z,66.05
2023-01-12T01:04:11.541Z,66.15
2023-01-12T01:06:39.162Z,66.09
2023-01-12T01:09:06.169Z,66.30
2023-01-12T01:11:33.158Z,66.17
2023-01-12T01:14:00.181Z,66.14
2023-01-12T01:16:27.036Z,66.27
2023-01-12T01:18:54.088Z,66.35
2023-01-12T01:21:21.153Z,66.43
2023-01-12T01:23:48.068Z,66.47
2023-01-12T01:26:17.243Z,66.46
2023-01-12T01:28:44.308Z,66.53
2023-01-12T01:31:16.139Z,66.63
2023-01-12T01:33:43.391Z,66.58
2023-01-12T01:36:10.656Z,66.66
2023-01-12T01:38:37.633Z,66.72
2023-01-12T01:41:05.544Z,66.74
2023-01-12T01:43:49.239Z,66.67
2023-01-12T01:46:17.369Z,66.69
2023-01-12T01:48:44.339Z,66.51
2023-01-12T01:51:12.820Z,66.62
2023-01-12T01:53:40.507Z,66.43
2023-01-12T01:56:27.959Z,66.52
2023-01-12T01:58:57.854Z,65.92
2023-01-12T02:01:24.914Z,66.03
2023-01-12T02:03:52.516Z,66.22
2023-01-12T02:06:19.468Z,66.13
2023-01-12T02:09:01.572Z,66.35
2023-01-12T02:11:47.167Z,66.55
2023-01-12T02:14:32.945Z,66.54
2023-01-12T02:17:02.782Z,66.65
2023-01-12T02:19:48.747Z,66.60
2023-01-12T02:22:36.269Z,66.45
2023-01-12T02:25:10.933Z,66.40
2023-01-12T02:28:13.467Z,66.62
2023-01-12T02:30:58.686Z,66.76
2023-01-12T02:33:49.125Z,67.03
2023-01-12T02:36:34.492Z,67.20
2023-01-12T02:39:13.211Z,67.61
2023-01-12T02:42:13.119Z,67.81
2023-01-12T02:44:43.361Z,67.89
2023-01-12T02:47:15.654Z,68.05
2023-01-12T02:49:45.137Z,68.16
2023-01-12T02:52:14.153Z,68.29
2023-01-12T02:54:40.990Z,68.23
2023-01-12T02:57:08.751Z,68.32
2023-01-12T02:59:37.381Z,68.60
2023-01-12T03:02:15.172Z,68.47
2023-01-12T03:04:42.420Z,69.01
2023-01-12T03:07:15.521Z,69.00
2023-01-12T03:09:45.630Z,69.25
2023-01-12T03:12:15.060Z,69.17
2023-01-12T03:14:44.406Z,69.27
2023-01-12T03:17:14.862Z,69.16
2023-01-12T03:19:41.671Z,69.25
2023-01-12T03:22:10.845Z,69.35
2023-01-12T03:24:39.844Z,69.45
2023-01-12T03:27:10.109Z,69.46
2023-01-12T03:29:43.441Z,69.47
2023-01-12T03:32:10.294Z,69.47
2023-01-12T03:34:37.167Z,69.54
2023-01-12T03:37:12.856Z,69.58
2023-01-12T03:39:50.483Z,69.56
2023-01-12T03:42:36.326Z,69.58
2023-01-12T03:45:34.365Z,69.74
2023-01-12T03:48:15.893Z,69.60
2023-01-12T03:50:55.104Z,69.65
2023-01-12T03:53:22.029Z,69.56
2023-01-12T03:55:50.647Z,69.73
2023-01-12T03:58:17.810Z,69.73
2023-01-12T04:00:44.689Z,69.75
2023-01-12T04:03:13.195Z,69.86
2023-01-12T04:05:40.642Z,70.01
2023-01-12T04:08:08.007Z,70.05
2023-01-12T04:10:35.242Z,69.96
2023-01-12T04:13:02.391Z,70.21
2023-01-12T04:15:29.347Z,70.22
2023-01-12T04:17:56.398Z,70.37
2023-01-12T04:20:23.559Z,70.62
2023-01-12T04:22:50.512Z,70.56
2023-01-12T04:25:19.512Z,70.64
2023-01-12T04:28:05.092Z,70.77
2023-01-12T04:30:32.802Z,70.80
2023-01-12T04:33:00.063Z,70.95
2023-01-12T04:35:27.770Z,71.01
2023-01-12T04:37:55.009Z,71.05
2023-01-12T04:40:22.003Z,71.07
2023-01-12T04:43:02.305Z,71.23
2023-01-12T04:45:30.718Z,71.31
2023-01-12T04:48:02.877Z,71.51
2023-01-12T04:50:30.185Z,71.65
2023-01-12T04:52:57.673Z,71.61
2023-01-12T04:55:24.951Z,71.50
2023-01-12T04:57:51.820Z,71.68
2023-01-12T05:00:19.516Z,71.82
2023-01-12T05:02:46.593Z,71.79
2023-01-12T05:05:13.540Z,71.75
2023-01-12T05:08:03.255Z,72.02
2023-01-12T05:10:30.226Z,71.99
2023-01-12T05:12:57.332Z,72.19
2023-01-12T05:15:24.213Z,72.22
2023-01-12T05:17:51.445Z,72.25
2023-01-12T05:20:18.261Z,72.31
2023-01-12T05:22:45.258Z,72.47
2023-01-12T05:25:12.230Z,72.53
2023-01-12T05:27:39.088Z,72.88
2023-01-12T05:30:06.984Z,72.89
2023-01-12T05:32:38.499Z,73.09
2023-01-12T05:35:09.232Z,73.33
2023-01-12T05:37:36.060Z,73.39
2023-01-12T05:40:03.087Z,73.57
2023-01-12T05:42:48.797Z,73.50
2023-01-12T05:45:15.727Z,73.70
2023-01-12T05:47:42.734Z,73.87
2023-01-12T05:50:10.360Z,73.98
2023-01-12T05:52:37.295Z,74.17
2023-01-12T05:55:05.195Z,74.19
2023-01-12T05:57:32.212Z,74.58
2023-01-12T05:59:59.243Z,74.68
2023-01-12T06:02:26.358Z,74.61
2023-01-12T06:04:53.507Z,74.76
2023-01-12T06:07:20.539Z,74.87
2023-01-12T06:09:47.570Z,74.86
2023-01-12T06:12:33.357Z,74.96
2023-01-12T06:15:00.255Z,74.99
2023-01-12T06:17:27.268Z,74.99
2023-01-12T06:19:54.208Z,75.15
2023-01-12T06:22:21.171Z,75.18
2023-01-12T06:24:49.383Z,75.19
2023-01-12T06:27:16.777Z,75.31
2023-01-12T06:29:43.811Z,75.32
2023-01-12T06:32:10.723Z,75.22
2023-01-12T06:34:37.897Z,75.28
2023-01-12T06:37:05.361Z,75.48
2023-01-12T06:39:32.285Z,75.51
2023-01-12T06:42:18.094Z,75.47
2023-01-12T06:44:45.094Z,75.54
2023-01-12T06:47:12.024Z,75.65
2023-01-12T06:49:38.965Z,75.76
2023-01-12T06:52:06.974Z,75.80
2023-01-12T06:54:33.865Z,75.73
2023-01-12T06:57:00.828Z,75.75
2023-01-12T06:59:27.790Z,75.80
2023-01-12T07:01:54.779Z,75.80
2023-01-12T07:04:21.808Z,75.92
2023-01-12T07:06:48.741Z,75.99
2023-01-12T07:09:15.700Z,76.09
2023-01-12T07:11:42.647Z,76.00
2023-01-12T07:14:09.498Z,76.12
2023-01-12T07:16:36.380Z,76.13
2023-01-12T07:19:03.338Z,76.34
2023-01-12T07:21:30.248Z,76.36
2023-01-12T07:23:57.206Z,76.46
2023-01-12T07:26:24.129Z,76.71
2023-01-12T07:28:51.010Z,76.63
2023-01-12T07:31:19.697Z,76.86
2023-01-12T07:33:46.782Z,76.79
2023-01-12T07:36:13.718Z,76.81
2023-01-12T07:38:42.717Z,76.95
2023-01-12T07:41:29.561Z,76.95
2023-01-12T07:43:59.340Z,76.99
2023-01-12T07:46:26.369Z,77.04
2023-01-12T07:48:53.459Z,76.90
2023-01-12T07:51:20.411Z,76.88
2023-01-12T07:53:48.289Z,76.89
2023-01-12T07:56:16.339Z,76.96
2023-01-12T07:58:43.532Z,77.00
2023-01-12T08:01:10.552Z,76.96
2023-01-12T08:03:43.250Z,76.79
2023-01-12T08:06:10.232Z,76.70
2023-01-12T08:08:37.143Z,76.64
2023-01-12T08:11:08.757Z,76.58
2023-01-12T08:13:35.995Z,76.53
2023-01-12T08:16:14.982Z,76.46
2023-01-12T08:18:47.034Z,76.50
2023-01-12T08:21:15.851Z,76.63
2023-01-12T08:23:47.641Z,76.65
2023-01-12T08:26:17.131Z,76.42
2023-01-12T08:28:46.701Z,76.32
2023-01-12T08:31:14.218Z,76.17
2023-01-12T08:33:42.079Z,76.05
2023-01-12T08:38:37.560Z,75.89
2023-01-12T08:41:23.352Z,75.92
2023-01-12T08:44:02.322Z,75.97
2023-01-12T08:46:47.502Z,76.02
2023-01-12T08:49:16.792Z,75.70
2023-01-12T08:51:44.674Z,75.80
2023-01-12T08:54:12.799Z,75.68
2023-01-12T08:56:39.780Z,75.49
2023-01-12T08:59:06.850Z,75.50
2023-01-12T09:01:34.208Z,75.38
2023-01-12T09:04:01.565Z,75.38
2023-01-12T09:06:40.321Z,75.42
2023-01-12T09:09:10.044Z,75.29
2023-01-12T09:11:37.826Z,75.25
2023-01-12T09:14:05.257Z,75.27
2023-01-12T09:16:33.163Z,75.36
2023-01-12T09:19:00.066Z,75.24
2023-01-12T09:21:27.819Z,75.14
2023-01-12T09:23:55.195Z,75.15
2023-01-12T09:26:24.056Z,75.32
2023-01-12T09:28:51.786Z,75.17
2023-01-12T09:31:20.353Z,75.13
2023-01-12T09:33:47.494Z,75.18
2023-01-12T09:36:15.064Z,75.24
2023-01-12T09:38:42.941Z,75.29
2023-01-12T09:41:43.658Z,75.20
2023-01-12T09:44:59.609Z,75.09
2023-01-12T09:47:32.502Z,74.89
2023-01-12T09:50:13.601Z,74.66
2023-01-12T09:52:46.693Z,74.64
2023-01-12T09:55:22.139Z,74.55
2023-01-12T09:58:01.267Z,74.43
2023-01-12T10:00:28.367Z,74.26
2023-01-12T10:03:07.595Z,74.25
2023-01-12T10:05:47.505Z,74.32
2023-01-12T10:08:28.173Z,74.27
2023-01-12T10:11:14.155Z,74.29
2023-01-12T10:13:56.522Z,74.37
2023-01-12T10:17:25.747Z,74.23
2023-01-12T10:20:09.762Z,74.06
2023-01-12T10:22:56.161Z,74.08
2023-01-12T10:25:28.140Z,74.06
2023-01-12T10:27:57.243Z,74.05
2023-01-12T10:30:38.217Z,74.05
2023-01-12T10:33:25.117Z,74.06
2023-01-12T10:35:55.242Z,73.90
2023-01-12T10:38:24.551Z,73.96
2023-01-12T10:41:12.130Z,74.12
2023-01-12T10:43:40.458Z,74.06
2023-01-12T10:46:18.292Z,73.90
2023-01-12T10:48:48.585Z,73.73
2023-01-12T10:51:23.107Z,73.69
2023-01-12T10:53:54.973Z,73.53
2023-01-12T10:56:31.458Z,73.27
2023-01-12T10:59:01.160Z,73.27
2023-01-12T11:01:45.919Z,73.45
2023-01-12T11:04:15.418Z,73.72
2023-01-12T11:06:44.272Z,73.85
2023-01-12T11:09:19.535Z,73.59
2023-01-12T11:11:46.511Z,73.61
2023-01-12T11:14:24.206Z,73.58
2023-01-12T11:16:51.296Z,73.65
2023-01-12T11:19:19.440Z,73.89
2023-01-12T11:21:55.403Z,74.01
2023-01-12T11:24:33.793Z,74.22
2023-01-12T11:27:29.861Z,74.06
2023-01-12T11:30:07.862Z,74.07
2023-01-12T11:32:46.956Z,74.07
2023-01-12T11:35:58.631Z,74.07
2023-01-12T11:38:50.760Z,74.08
2023-01-12T11:41:23.895Z,73.96
2023-01-12T11:43:56.216Z,74.02
2023-01-12T11:46:30.292Z,73.95
2023-01-12T11:49:10.266Z,73.99
2023-01-12T11:51:37.440Z,73.71
2023-01-12T11:54:06.439Z,73.62
2023-01-12T11:56:45.899Z,73.65
2023-01-12T11:59:39.314Z,73.58
2023-01-12T12:02:33.693Z,73.69
2023-01-12T12:05:20.468Z,73.77
2023-01-12T12:08:06.202Z,73.73
2023-01-12T12:10:37.162Z,73.82
2023-01-12T12:13:26.919Z,73.71
2023-01-12T12:16:02.911Z,73.74
2023-01-12T12:18:58.181Z,73.90
2023-01-12T12:21:40.389Z,73.88
2023-01-12T12:24:19.806Z,73.84
2023-01-12T12:27:05.799Z,73.86
2023-01-12T12:30:30.585Z,73.80
2023-01-12T12:33:06.499Z,73.87
2023-01-12T12:35:42.699Z,73.95
2023-01-12T12:38:22.948Z,73.88
2023-01-12T12:41:47.410Z,73.83
2023-01-12T12:44:52.228Z,73.87
2023-01-12T12:47:42.215Z,73.66
2023-01-12T12:50:34.327Z,73.67
2023-01-12T12:53:14.923Z,73.70
2023-01-12T12:55:42.257Z,73.75
2023-01-12T12:58:21.594Z,73.94
2023-01-12T13:00:52.754Z,73.96
2023-01-12T13:03:41.387Z,73.99
2023-01-12T13:06:16.044Z,74.01
2023-01-12T13:08:43.203Z,74.05
2023-01-12T13:11:10.879Z,73.92
2023-01-12T13:13:38.423Z,73.83
2023-01-12T13:16:11.720Z,73.88
2023-01-12T13:18:43.873Z,73.69
2023-01-12T13:21:43.371Z,73.93
2023-01-12T13:24:10.241Z,73.80
2023-01-12T13:26:39.418Z,73.76
2023-01-12T13:29:28.301Z,73.65
2023-01-12T13:31:58.824Z,73.74
2023-01-12T13:34:46.318Z,73.72
2023-01-12T13:37:31.710Z,73.92
2023-01-12T13:40:04.068Z,73.65
2023-01-12T13:42:49.859Z,73.58
2023-01-12T13:45:17.893Z,73.47
2023-01-12T13:47:45.604Z,73.54
2023-01-12T13:50:39.069Z,73.66
2023-01-12T13:53:06.129Z,73.60
2023-01-12T13:55:33.687Z,73.61
2023-01-12T13:58:02.685Z,73.49
2023-01-12T14:00:31.416Z,73.58
2023-01-12T14:02:58.775Z,73.44
2023-01-12T14:05:34.863Z,73.32
2023-01-12T14:08:39.592Z,73.38
2023-01-12T14:11:22.245Z,73.43
2023-01-12T14:14:31.069Z,73.49
2023-01-12T14:17:16.851Z,73.63
2023-01-12T14:19:50.238Z,73.73
2023-01-12T14:22:18.522Z,73.72
2023-01-12T14:24:45.418Z,73.67
2023-01-12T14:27:21.951Z,73.61
2023-01-12T14:29:49.258Z,73.40
2023-01-12T14:32:16.276Z,73.53
2023-01-12T14:34:49.270Z,73.49
2023-01-12T14:37:32.375Z,73.37
2023-01-12T14:39:59.265Z,73.35
2023-01-12T14:42:44.906Z,73.67
2023-01-12T14:45:42.086Z,73.86
2023-01-12T14:48:29.208Z,73.84
2023-01-12T14:51:20.566Z,73.99
2023-01-12T14:53:48.182Z,74.03
2023-01-12T14:56:24.207Z,74.17
2023-01-12T14:58:51.089Z,74.04
2023-01-12T15:01:38.516Z,74.10
2023-01-12T15:04:07.000Z,74.16
2023-01-12T15:06:42.510Z,74.29
2023-01-12T15:09:29.358Z,74.31
2023-01-12T15:11:58.842Z,74.49
2023-01-12T15:14:40.752Z,74.76
2023-01-12T15:17:29.813Z,74.78
2023-01-12T15:20:15.698Z,74.90
2023-01-12T15:23:04.391Z,74.99
2023-01-12T15:25:45.439Z,75.40
2023-01-12T15:28:14.005Z,75.80
2023-01-12T15:30:48.240Z,76.00
2023-01-12T15:33:17.149Z,76.12
2023-01-12T15:35:46.189Z,76.38
2023-01-12T15:38:16.827Z,76.40
2023-01-12T15:40:45.319Z,76.51
2023-01-12T15:43:21.819Z,76.52
2023-01-12T15:45:49.216Z,76.43
2023-01-12T15:48:17.715Z,76.62
2023-01-12T15:50:47.842Z,76.54
2023-01-12T15:53:17.582Z,76.40
2023-01-12T15:55:47.706Z,76.74
2023-01-12T15:58:26.698Z,76.71
2023-01-12T16:00:54.048Z,76.81
2023-01-12T16:03:54.507Z,76.91
2023-01-12T16:06:08.757Z,77.05
2023-01-12T16:11:28.139Z,77.02
2023-01-12T16:14:00.618Z,77.03
2023-01-12T16:19:26.214Z,77.16
2023-01-12T16:21:57.878Z,77.10
2023-01-12T16:24:27.105Z,77.00
2023-01-12T16:26:54.213Z,77.14
2023-01-12T16:29:24.375Z,77.31
2023-01-12T16:31:56.178Z,77.23
2023-01-12T16:34:24.585Z,76.72
2023-01-12T16:37:00.882Z,75.95
2023-01-12T16:39:35.062Z,75.57
2023-01-12T16:42:05.589Z,76.23
2023-01-12T16:44:39.675Z,76.95
2023-01-12T16:47:14.631Z,77.17
2023-01-12T16:49:44.948Z,77.37
2023-01-12T16:52:15.091Z,77.31
2023-01-12T16:54:43.893Z,77.35
2023-01-12T16:57:19.964Z,77.21
2023-01-12T16:59:49.910Z,77.15
2023-01-12T17:02:21.579Z,77.01
2023-01-12T17:04:52.964Z,76.95
2023-01-12T17:10:07.641Z,76.83
2023-01-12T17:12:35.723Z,76.70
2023-01-12T17:15:07.857Z,76.42
2023-01-12T17:17:42.530Z,76.06
2023-01-12T17:20:16.429Z,75.98
2023-01-12T17:22:44.275Z,76.07
2023-01-12T17:25:11.678Z,75.77
2023-01-12T17:27:38.592Z,75.82
2023-01-12T17:30:06.530Z,75.66
2023-01-12T17:32:33.465Z,75.45
2023-01-12T17:35:01.942Z,75.42
2023-01-12T17:37:29.367Z,75.32
2023-01-12T17:39:56.300Z,75.18
2023-01-12T17:42:42.052Z,74.89
2023-01-12T17:45:09.894Z,74.79
2023-01-12T17:47:37.203Z,74.70
2023-01-12T17:50:05.033Z,74.56
2023-01-12T17:52:32.361Z,74.51
2023-01-12T17:54:59.337Z,74.21
2023-01-12T17:57:27.325Z,74.24
2023-01-12T17:59:54.290Z,74.08
2023-01-12T18:02:21.645Z,74.07
2023-01-12T18:04:48.666Z,73.94
2023-01-12T18:07:15.577Z,73.12
2023-01-12T18:09:42.556Z,72.35
2023-01-12T18:12:10.626Z,72.21
2023-01-12T18:14:37.793Z,72.83
2023-01-12T18:17:04.709Z,73.34
2023-01-12T18:19:31.863Z,73.61
2023-01-12T18:21:59.052Z,73.54
2023-01-12T18:24:25.939Z,73.41
2023-01-12T18:26:52.815Z,73.23
2023-01-12T18:29:19.812Z,73.20
2023-01-12T18:31:47.442Z,73.22
2023-01-12T18:34:16.791Z,73.20
2023-01-12T18:36:43.943Z,73.30
2023-01-12T18:39:21.049Z,73.53
2023-01-12T18:42:07.940Z,73.62
2023-01-12T18:44:35.523Z,73.63
2023-01-12T18:47:22.226Z,73.58
2023-01-12T18:49:49.412Z,73.47
2023-01-12T18:52:36.203Z,73.46
2023-01-12T18:55:04.372Z,73.55
2023-01-12T18:57:31.817Z,73.55
2023-01-12T19:00:04.818Z,73.52
2023-01-12T19:02:31.886Z,73.34
2023-01-12T19:05:15.785Z,73.29
2023-01-12T19:08:05.088Z,73.31
2023-01-12T19:10:32.782Z,73.55
2023-01-12T19:13:18.668Z,73.48
2023-01-12T19:16:04.600Z,73.30
2023-01-12T19:18:31.748Z,73.39
2023-01-12T19:21:21.608Z,73.19
2023-01-12T19:24:07.572Z,73.05
2023-01-12T19:26:53.251Z,73.15
2023-01-12T19:29:20.129Z,73.23
2023-01-12T19:31:47.218Z,73.30
2023-01-12T19:34:14.233Z,73.35
2023-01-12T19:36:41.177Z,73.49
2023-01-12T19:39:09.761Z,73.38
2023-01-12T19:41:55.548Z,73.37
2023-01-12T19:44:22.432Z,73.40
2023-01-12T19:46:49.329Z,73.41
2023-01-12T19:49:17.790Z,73.11
2023-01-12T19:51:46.222Z,72.99
2023-01-12T19:54:13.287Z,73.21
2023-01-12T19:56:40.262Z,73.26
2023-01-12T19:59:07.300Z,73.14
2023-01-12T20:01:34.357Z,73.09
2023-01-12T20:04:01.447Z,73.03
2023-01-12T20:06:29.119Z,72.67
2023-01-12T20:08:55.976Z,72.47
2023-01-12T20:11:22.927Z,72.66
2023-01-12T20:13:49.901Z,72.95
2023-01-12T20:16:16.862Z,73.24
2023-01-12T20:18:43.793Z,73.25
2023-01-12T20:21:11.498Z,73.30
2023-01-12T20:23:38.719Z,73.47
2023-01-12T20:26:11.527Z,73.60
2023-01-12T20:28:38.488Z,73.64
2023-01-12T20:31:10.204Z,73.62
2023-01-12T20:33:37.167Z,73.56
2023-01-12T20:36:04.427Z,73.79
2023-01-12T20:38:31.376Z,73.90
2023-01-12T20:40:58.299Z,73.88
2023-01-12T20:43:25.276Z,74.05
2023-01-12T20:45:52.849Z,73.89
2023-01-12T20:48:19.830Z,73.70
2023-01-12T20:50:47.005Z,73.68
2023-01-12T20:53:14.241Z,73.64
2023-01-12T20:55:50.900Z,73.61
2023-01-12T20:58:18.114Z,73.85
2023-01-12T21:00:45.088Z,73.88
2023-01-12T21:03:12.191Z,73.94
2023-01-12T21:05:43.349Z,73.90
2023-01-12T21:08:10.782Z,73.87
2023-01-12T21:10:38.206Z,73.87
2023-01-12T21:13:05.579Z,73.88
2023-01-12T21:15:32.835Z,73.92
2023-01-12T21:17:59.789Z,73.89
2023-01-12T21:20:26.741Z,73.85
2023-01-12T21:22:53.556Z,73.66
2023-01-12T21:25:20.438Z,73.58
2023-01-12T21:27:47.291Z,73.66
2023-01-12T21:30:14.244Z,73.58
2023-01-12T21:32:43.654Z,73.57
2023-01-12T21:35:10.803Z,73.60
2023-01-12T21:37:38.058Z,73.80
2023-01-12T21:40:05.623Z,73.80
2023-01-12T21:42:51.277Z,73.76
2023-01-12T21:45:18.970Z,73.75
2023-01-12T21:47:46.454Z,73.67
2023-01-12T21:50:13.617Z,73.46
2023-01-12T21:52:42.120Z,73.38
2023-01-12T21:55:11.785Z,73.40
2023-01-12T21:57:39.001Z,73.37
2023-01-12T22:00:07.119Z,73.45
2023-01-12T22:02:38.891Z,73.50
2023-01-12T22:05:07.664Z,73.47
2023-01-12T22:07:34.509Z,73.54
2023-01-12T22:10:19.005Z,73.65
2023-01-12T22:12:47.462Z,73.42
2023-01-12T22:15:14.615Z,73.30
2023-01-12T22:17:42.030Z,73.45
2023-01-12T22:20:10.159Z,73.33
2023-01-12T22:22:40.284Z,73.36
2023-01-12T22:25:08.359Z,73.41
2023-01-12T22:27:35.762Z,73.44
2023-01-12T22:30:03.383Z,73.34
2023-01-12T22:32:30.294Z,73.30
2023-01-12T22:34:58.980Z,73.39
2023-01-12T22:37:26.956Z,73.31
2023-01-12T22:39:54.119Z,73.51
2023-01-12T22:42:21.683Z,73.88
2023-01-12T22:44:48.772Z,73.82
2023-01-12T22:47:15.833Z,73.81
2023-01-12T22:49:43.608Z,73.75
2023-01-12T22:52:10.682Z,73.87
2023-01-12T22:54:38.756Z,73.80
2023-01-12T22:57:07.020Z,73.90
2023-01-12T22:59:33.984Z,74.00
2023-01-12T23:02:21.010Z,73.81
2023-01-12T23:04:47.997Z,73.80
2023-01-12T23:07:19.394Z,73.94
2023-01-12T23:09:46.602Z,73.92
2023-01-12T23:12:13.475Z,73.97
2023-01-12T23:14:40.404Z,74.02
2023-01-12T23:17:07.509Z,74.02
2023-01-12T23:19:34.436Z,74.14
2023-01-12T23:22:01.269Z,73.87
2023-01-12T23:24:28.210Z,74.08
2023-01-12T23:26:55.187Z,74.10
2023-01-12T23:29:22.093Z,74.28
2023-01-12T23:31:49.019Z,74.30
2023-01-12T23:34:15.968Z,74.14
2023-01-12T23:36:42.854Z,74.18
2023-01-12T23:39:10.881Z,74.25
2023-01-12T23:41:38.120Z,74.19
2023-01-12T23:44:06.501Z,74.16
2023-01-12T23:46:35.480Z,74.35
2023-01-12T23:49:02.421Z,74.47
2023-01-12T23:51:29.489Z,74.48
2023-01-12T23:54:00.546Z,74.58
2023-01-12T23:56:31.954Z,74.55
2023-01-12T23:58:58.852Z,74.68
